Time;durP1;ratioP1;P1;durP2;ratioP2;P2;SDS_P1;SDS_P2;PMS_P1;PMS_P2;Temp;Humidity;BMP_temperature;BMP_pressure;BME280_temperature;BME280_humidity;BME280_pressure;Samples;Min_cycle;Max_cycle;Signal;HPM_P1;HPM_P2
2021/04/19 00:00:47;;;;;;;11.00;9.27;;;;;;;;;;5090651;28;20419;-54
2021/04/19 00:03:13;;;;;;;9.50;8.50;;;;;;;;;;5090424;28;20392;-55
2021/04/19 00:05:39;;;;;;;11.57;9.07;;;;;;;;;;5090210;28;20415;-54
2021/04/19 00:08:06;;;;;;;11.00;9.27;;;;;;;;;;5090325;28;20407;-55
2021/04/19 00:10:32;;;;;;;9.90;8.90;;;;;;;;;;5090389;28;20511;-54
2021/04/19 00:12:58;;;;;;;11.57;9.00;;;;;;;;;;5093793;28;20902;-54
2021/04/19 00:15:24;;;;;;;10.63;8.97;;;;;;;;;;5093866;28;20444;-54
2021/04/19 00:17:50;;;;;;;10.23;9.10;;;;;;;;;;5094263;28;20400;-55
2021/04/19 00:20:16;;;;;;;10.80;8.80;;;;;;;;;;5094047;28;20415;-55
2021/04/19 00:22:42;;;;;;;10.53;9.53;;;;;;;;;;5094214;28;20399;-53
2021/04/19 00:25:09;;;;;;;9.90;8.90;;;;;;;;;;5093675;28;20411;-54
2021/04/19 00:27:35;;;;;;;10.07;8.57;;;;;;;;;;5093950;28;20407;-55
2021/04/19 00:30:02;;;;;;;11.20;9.67;;;;;;;;;;5093803;28;20422;-55
2021/04/19 00:32:27;;;;;;;10.83;9.73;;;;;;;;;;5094352;28;20804;-55
2021/04/19 00:34:53;;;;;;;10.93;8.83;;;;;;;;;;5094116;28;20406;-54
2021/04/19 00:37:21;;;;;;;10.03;8.20;;;;;;;;;;5093629;28;20820;-55
2021/04/19 00:39:47;;;;;;;10.47;9.47;;;;;;;;;;5093540;28;20430;-55
2021/04/19 00:42:13;;;;;;;11.50;9.67;;;;;;;;;;5093777;28;20490;-55
2021/04/19 00:44:39;;;;;;;11.73;9.30;;;;;;;;;;5093631;28;20528;-57
2021/04/19 00:47:05;;;;;;;11.57;9.77;;;;;;;;;;5093478;28;20878;-55
2021/04/19 00:49:31;;;;;;;19.93;10.87;;;;;;;;;;5093472;28;20424;-54
2021/04/19 00:51:57;;;;;;;10.83;9.73;;;;;;;;;;5093609;28;20947;-54
2021/04/19 00:54:24;;;;;;;11.50;9.93;;;;;;;;;;5094019;28;20404;-55
2021/04/19 00:56:50;;;;;;;10.90;9.80;;;;;;;;;;5092993;28;20451;-54
2021/04/19 00:59:16;;;;;;;11.73;10.53;;;;;;;;;;5093488;28;20439;-54
2021/04/19 01:01:43;;;;;;;14.70;11.33;;;;;;;;;;5093005;28;20426;-54
2021/04/19 01:04:09;;;;;;;10.97;9.87;;;;;;;;;;5093066;28;20391;-54
2021/04/19 01:06:35;;;;;;;11.00;9.90;;;;;;;;;;5093023;28;20399;-55
2021/04/19 01:09:01;;;;;;;13.20;10.63;;;;;;;;;;5093362;28;20419;-55
2021/04/19 01:11:27;;;;;;;12.40;11.20;;;;;;;;;;5093118;28;20408;-54
2021/04/19 01:13:53;;;;;;;12.73;11.10;;;;;;;;;;5093482;28;20921;-55
2021/04/19 01:16:19;;;;;;;13.13;11.40;;;;;;;;;;5092707;28;20977;-55
2021/04/19 01:18:45;;;;;;;11.60;10.50;;;;;;;;;;5093052;28;20464;-54
2021/04/19 01:21:11;;;;;;;14.27;11.67;;;;;;;;;;5092929;28;20431;-54
2021/04/19 01:23:37;;;;;;;15.80;12.27;;;;;;;;;;5092757;28;20462;-54
2021/04/19 01:26:04;;;;;;;14.90;13.40;;;;;;;;;;5092667;28;20468;-54
2021/04/19 01:28:30;;;;;;;16.03;14.53;;;;;;;;;;5092947;28;20396;-55
2021/04/19 01:30:56;;;;;;;18.90;16.30;;;;;;;;;;5092927;28;20478;-56
2021/04/19 01:33:23;;;;;;;16.63;14.87;;;;;;;;;;5092717;28;20846;-55
2021/04/19 01:35:49;;;;;;;18.87;15.27;;;;;;;;;;5092451;28;20482;-54
2021/04/19 01:38:16;;;;;;;17.30;13.50;;;;;;;;;;5092363;28;20955;-54
2021/04/19 01:40:42;;;;;;;15.70;13.90;;;;;;;;;;5092511;28;20415;-55
2021/04/19 01:43:08;;;;;;;16.53;14.80;;;;;;;;;;5092451;28;20761;-54
2021/04/19 01:45:34;;;;;;;19.50;16.63;;;;;;;;;;5092341;28;20438;-55
2021/04/19 01:48:00;;;;;;;18.70;16.70;;;;;;;;;;5092410;28;20392;-55
2021/04/19 01:50:27;;;;;;;19.30;16.50;;;;;;;;;;5092410;28;20418;-55
2021/04/19 01:52:54;;;;;;;21.70;16.60;;;;;;;;;;5092340;28;20395;-56
2021/04/19 01:55:21;;;;;;;19.13;16.20;;;;;;;;;;5091998;28;20399;-55
2021/04/19 01:57:50;;;;;;;19.60;16.83;;;;;;;;;;5092321;28;20450;-55
2021/04/19 02:00:18;;;;;;;22.60;17.70;;;;;;;;;;5091962;28;20522;-55
2021/04/19 02:02:49;;;;;;;19.27;16.53;;;;;;;;;;5092207;28;20403;-55
2021/04/19 02:05:30;;;;;;;23.10;18.83;;;;;;;;;;5091714;28;20407;-54
2021/04/19 02:07:59;;;;;;;18.23;16.23;;;;;;;;;;5092223;28;20407;-55
2021/04/19 02:10:44;;;;;;;21.93;17.20;;;;;;;;;;5091838;28;20418;-56
2021/04/19 02:13:16;;;;;;;23.13;18.50;;;;;;;;;;5092153;28;20403;-55
2021/04/19 02:15:54;;;;;;;24.97;18.67;;;;;;;;;;5091443;28;20903;-54
2021/04/19 02:18:20;;;;;;;22.70;18.23;;;;;;;;;;5091859;28;20391;-54
2021/04/19 02:20:46;;;;;;;22.80;19.17;;;;;;;;;;5091824;28;20543;-55
2021/04/19 02:23:23;;;;;;;21.77;17.37;;;;;;;;;;5091832;28;20913;-55
2021/04/19 02:25:51;;;;;;;23.07;19.80;;;;;;;;;;5091416;28;20403;-55
2021/04/19 02:28:23;;;;;;;27.30;19.87;;;;;;;;;;5091651;28;20410;-55
2021/04/19 02:30:51;;;;;;;26.67;20.03;;;;;;;;;;5091822;28;20935;-55
2021/04/19 02:33:18;;;;;;;21.73;19.33;;;;;;;;;;5091533;28;20400;-54
2021/04/19 02:35:46;;;;;;;25.07;20.17;;;;;;;;;;5090785;28;20465;-54
2021/04/19 02:38:16;;;;;;;28.90;21.20;;;;;;;;;;5091499;28;20404;-55
2021/04/19 02:40:42;;;;;;;26.10;20.83;;;;;;;;;;5091354;28;20426;-55
2021/04/19 02:43:08;;;;;;;28.97;22.60;;;;;;;;;;5091358;28;20391;-55
2021/04/19 02:45:34;;;;;;;28.03;22.93;;;;;;;;;;5091185;28;20407;-56
2021/04/19 02:48:01;;;;;;;30.00;22.87;;;;;;;;;;5091511;28;20395;-55
2021/04/19 02:50:28;;;;;;;26.57;22.37;;;;;;;;;;5091432;28;20455;-54
2021/04/19 02:52:54;;;;;;;31.70;23.17;;;;;;;;;;5091277;28;20394;-54
2021/04/19 02:55:23;;;;;;;36.57;24.30;;;;;;;;;;5091073;28;20403;-55
2021/04/19 02:57:52;;;;;;;29.50;22.60;;;;;;;;;;5091138;28;20443;-54
2021/04/19 03:00:21;;;;;;;30.50;23.83;;;;;;;;;;5091194;28;20435;-54
2021/04/19 03:02:47;;;;;;;33.53;24.83;;;;;;;;;;5091175;28;20903;-56
2021/04/19 03:05:15;;;;;;;33.00;25.03;;;;;;;;;;5090990;28;20414;-55
2021/04/19 03:07:45;;;;;;;30.40;24.80;;;;;;;;;;5091094;28;20778;-55
2021/04/19 03:10:13;;;;;;;33.20;25.33;;;;;;;;;;5091326;28;20446;-56
2021/04/19 03:12:41;;;;;;;31.10;25.07;;;;;;;;;;5091398;28;20407;-55
2021/04/19 03:15:09;;;;;;;30.30;24.13;;;;;;;;;;5090910;28;20407;-54
2021/04/19 03:17:35;;;;;;;30.83;24.30;;;;;;;;;;5091248;28;20455;-56
2021/04/19 03:20:05;;;;;;;30.87;24.70;;;;;;;;;;5090944;28;20419;-55
2021/04/19 03:22:32;;;;;;;32.17;25.17;;;;;;;;;;5091026;28;20399;-54
2021/04/19 03:24:58;;;;;;;28.47;23.60;;;;;;;;;;5090661;28;20407;-54
2021/04/19 03:27:25;;;;;;;29.67;23.50;;;;;;;;;;5090781;28;20403;-54
2021/04/19 03:29:51;;;;;;;30.33;24.37;;;;;;;;;;5090730;28;20419;-55
2021/04/19 03:32:18;;;;;;;34.17;24.43;;;;;;;;;;5090878;28;20400;-54
2021/04/19 03:34:46;;;;;;;29.10;23.43;;;;;;;;;;5090679;28;20395;-55
2021/04/19 03:37:17;;;;;;;32.60;25.27;;;;;;;;;;5090838;28;20450;-54
2021/04/19 03:39:44;;;;;;;33.73;24.63;;;;;;;;;;5090642;28;20426;-54
2021/04/19 03:42:11;;;;;;;32.40;25.00;;;;;;;;;;5090698;28;20406;-55
2021/04/19 03:44:39;;;;;;;31.90;25.17;;;;;;;;;;5090692;28;20404;-54
2021/04/19 03:47:05;;;;;;;30.17;23.73;;;;;;;;;;5094252;28;20404;-55
2021/04/19 03:49:34;;;;;;;33.80;26.37;;;;;;;;;;5094524;28;20504;-55
2021/04/19 03:52:04;;;;;;;35.60;24.70;;;;;;;;;;5094792;28;20410;-55
2021/04/19 03:54:33;;;;;;;33.70;25.60;;;;;;;;;;5094725;28;20427;-55
2021/04/19 03:57:01;;;;;;;30.50;23.80;;;;;;;;;;5094227;28;20455;-54
2021/04/19 03:59:28;;;;;;;32.23;24.80;;;;;;;;;;5094441;28;20473;-54
2021/04/19 04:01:54;;;;;;;33.47;25.17;;;;;;;;;;5094370;28;20478;-55
2021/04/19 04:04:22;;;;;;;33.70;24.90;;;;;;;;;;5094455;28;20402;-55
2021/04/19 04:06:48;;;;;;;33.53;25.70;;;;;;;;;;5094092;28;20405;-54
2021/04/19 04:09:14;;;;;;;31.27;24.00;;;;;;;;;;5094367;28;20930;-55
2021/04/19 04:11:42;;;;;;;32.97;25.87;;;;;;;;;;5094239;28;20406;-55
2021/04/19 04:14:08;;;;;;;33.17;25.77;;;;;;;;;;5094252;28;20411;-54
2021/04/19 04:16:34;;;;;;;32.30;24.23;;;;;;;;;;5093895;28;20461;-55
2021/04/19 04:19:00;;;;;;;31.10;24.70;;;;;;;;;;5094233;28;20418;-55
2021/04/19 04:21:27;;;;;;;34.20;25.93;;;;;;;;;;5094240;28;20395;-55
2021/04/19 04:23:53;;;;;;;30.50;24.57;;;;;;;;;;5093974;28;20410;-54
2021/04/19 04:26:20;;;;;;;29.77;23.23;;;;;;;;;;5093742;28;20413;-55
2021/04/19 04:28:46;;;;;;;30.37;23.00;;;;;;;;;;5093866;28;21024;-55
2021/04/19 04:31:12;;;;;;;31.73;22.90;;;;;;;;;;5093904;28;20478;-55
2021/04/19 04:33:38;;;;;;;31.23;22.83;;;;;;;;;;5093704;28;20544;-55
2021/04/19 04:36:04;;;;;;;33.40;23.60;;;;;;;;;;5093599;28;20583;-55
2021/04/19 04:38:30;;;;;;;28.13;22.33;;;;;;;;;;5093835;28;20945;-55
2021/04/19 04:40:56;;;;;;;31.70;22.47;;;;;;;;;;5093904;28;20404;-56
2021/04/19 04:43:23;;;;;;;26.87;20.90;;;;;;;;;;5093693;28;20410;-54
2021/04/19 04:45:54;;;;;;;30.93;22.40;;;;;;;;;;5093448;28;20900;-55
2021/04/19 04:48:25;;;;;;;28.50;21.17;;;;;;;;;;5093657;28;20411;-54
2021/04/19 04:51:04;;;;;;;27.70;22.07;;;;;;;;;;5093366;28;20792;-54
2021/04/19 04:53:36;;;;;;;30.03;22.07;;;;;;;;;;5093606;28;20414;-55
2021/04/19 04:56:02;;;;;;;31.43;25.80;;;;;;;;;;5093085;28;20451;-54
2021/04/19 04:58:29;;;;;;;34.63;25.83;;;;;;;;;;5092629;28;20426;-55
2021/04/19 05:00:56;;;;;;;32.43;25.53;;;;;;;;;;5093528;28;20419;-55
2021/04/19 05:03:23;;;;;;;37.43;26.57;;;;;;;;;;5092044;28;20416;-54
2021/04/19 05:05:49;;;;;;;31.03;24.10;;;;;;;;;;5093076;28;20399;-55
2021/04/19 05:08:15;;;;;;;36.87;24.40;;;;;;;;;;5093474;28;20453;-56
2021/04/19 05:10:41;;;;;;;33.40;25.63;;;;;;;;;;5093245;28;20419;-54
2021/04/19 05:13:11;;;;;;;31.33;24.30;;;;;;;;;;5093577;28;20400;-55
2021/04/19 05:15:41;;;;;;;31.50;22.23;;;;;;;;;;5092885;28;20482;-56
2021/04/19 05:18:07;;;;;;;33.33;24.13;;;;;;;;;;5093165;28;20399;-55
2021/04/19 05:20:33;;;;;;;34.50;25.10;;;;;;;;;;5093086;28;20422;-55
2021/04/19 05:22:58;;;;;;;35.67;25.30;;;;;;;;;;5093539;28;20392;-55
2021/04/19 05:25:24;;;;;;;35.57;26.03;;;;;;;;;;5092869;28;20951;-55
2021/04/19 05:27:51;;;;;;;36.47;26.80;;;;;;;;;;5092925;28;20559;-55
2021/04/19 05:30:17;;;;;;;38.13;26.47;;;;;;;;;;5092948;28;20469;-54
2021/04/19 05:32:43;;;;;;;40.50;26.40;;;;;;;;;;5092751;28;20403;-55
2021/04/19 05:35:10;;;;;;;36.60;27.53;;;;;;;;;;5092634;28;20401;-55
2021/04/19 05:37:36;;;;;;;39.40;28.37;;;;;;;;;;5091290;28;20996;-55
2021/04/19 05:40:02;;;;;;;35.90;26.47;;;;;;;;;;5092711;28;20760;-55
2021/04/19 05:42:28;;;;;;;34.77;26.03;;;;;;;;;;5092539;28;20399;-55
2021/04/19 05:44:54;;;;;;;36.27;27.27;;;;;;;;;;5092646;28;20457;-55
2021/04/19 05:47:20;;;;;;;35.10;26.30;;;;;;;;;;5092336;28;20396;-55
2021/04/19 05:49:46;;;;;;;38.70;27.70;;;;;;;;;;5092481;28;20427;-55
2021/04/19 05:52:12;;;;;;;37.80;26.20;;;;;;;;;;5092548;28;20414;-55
2021/04/19 05:54:40;;;;;;;37.83;26.80;;;;;;;;;;5092304;28;20435;-54
2021/04/19 05:57:14;;;;;;;37.53;27.27;;;;;;;;;;5092123;28;20977;-55
2021/04/19 05:59:46;;;;;;;41.73;27.93;;;;;;;;;;5092096;28;20435;-55
2021/04/19 06:02:13;;;;;;;40.13;28.17;;;;;;;;;;5091938;28;20760;-54
2021/04/19 06:04:47;;;;;;;36.70;26.77;;;;;;;;;;5091532;28;20478;-56
2021/04/19 06:07:16;;;;;;;37.50;27.80;;;;;;;;;;5091512;28;20879;-54
2021/04/19 06:09:47;;;;;;;35.80;25.93;;;;;;;;;;5089087;28;20435;-55
2021/04/19 06:12:17;;;;;;;31.10;24.13;;;;;;;;;;5091669;28;20525;-55
2021/04/19 06:14:44;;;;;;;36.37;25.50;;;;;;;;;;5091570;28;20431;-55
2021/04/19 06:17:11;;;;;;;42.30;27.47;;;;;;;;;;5091161;28;20451;-55
2021/04/19 06:19:38;;;;;;;34.30;25.60;;;;;;;;;;5091010;28;20426;-54
2021/04/19 06:22:05;;;;;;;37.77;26.07;;;;;;;;;;5091320;28;20874;-55
2021/04/19 06:24:31;;;;;;;34.33;25.60;;;;;;;;;;5091103;28;20453;-54
2021/04/19 06:26:58;;;;;;;37.00;26.93;;;;;;;;;;5091134;28;20773;-55
2021/04/19 06:29:28;;;;;;;36.80;27.93;;;;;;;;;;5091592;28;20442;-55
2021/04/19 06:31:54;;;;;;;35.97;25.03;;;;;;;;;;5092033;28;20879;-55
2021/04/19 06:34:20;;;;;;;36.00;25.97;;;;;;;;;;5091645;28;20418;-55
2021/04/19 06:36:47;;;;;;;30.90;22.67;;;;;;;;;;5091097;28;20997;-55
2021/04/19 06:39:14;;;;;;;26.07;20.60;;;;;;;;;;5091516;28;20416;-55
2021/04/19 06:41:41;;;;;;;25.40;19.47;;;;;;;;;;5091781;28;20449;-55
2021/04/19 06:44:07;;;;;;;25.83;20.70;;;;;;;;;;5091481;28;20449;-55
2021/04/19 06:46:35;;;;;;;23.30;19.13;;;;;;;;;;5090965;28;20439;-55
2021/04/19 06:49:01;;;;;;;23.30;19.60;;;;;;;;;;5091337;28;20485;-55
2021/04/19 06:51:27;;;;;;;20.20;17.07;;;;;;;;;;5091157;28;20408;-55
2021/04/19 06:53:54;;;;;;;21.73;16.63;;;;;;;;;;5091457;28;20458;-55
2021/04/19 06:56:22;;;;;;;19.63;15.47;;;;;;;;;;5091208;28;20455;-55
2021/04/19 06:58:48;;;;;;;19.67;16.00;;;;;;;;;;5090939;28;20880;-54
2021/04/19 07:01:17;;;;;;;18.17;14.90;;;;;;;;;;5091026;28;20480;-55
2021/04/19 07:03:44;;;;;;;15.97;14.30;;;;;;;;;;5091048;28;20409;-54
2021/04/19 07:06:11;;;;;;;15.67;13.33;;;;;;;;;;5091069;28;20413;-55
2021/04/19 07:08:46;;;;;;;14.40;12.87;;;;;;;;;;5091308;28;20799;-55
2021/04/19 07:11:12;;;;;;;16.07;13.70;;;;;;;;;;5091121;28;20406;-55
2021/04/19 07:13:39;;;;;;;15.27;12.70;;;;;;;;;;5090991;28;20407;-55
2021/04/19 07:16:05;;;;;;;15.30;13.70;;;;;;;;;;5090682;28;20455;-55
2021/04/19 07:18:31;;;;;;;13.37;11.87;;;;;;;;;;5091020;28;20520;-54
2021/04/19 07:20:57;;;;;;;13.47;12.00;;;;;;;;;;5090789;28;20855;-55
2021/04/19 07:23:23;;;;;;;16.67;11.17;;;;;;;;;;5090940;28;20474;-55
2021/04/19 07:25:50;;;;;;;12.00;10.70;;;;;;;;;;5090707;28;20518;-54
2021/04/19 07:28:16;;;;;;;12.43;11.13;;;;;;;;;;5090698;28;20408;-55
2021/04/19 07:30:43;;;;;;;11.53;10.30;;;;;;;;;;5090741;28;20424;-55
2021/04/19 07:33:25;;;;;;;12.73;10.10;;;;;;;;;;5090965;28;20429;-54
2021/04/19 07:35:51;;;;;;;9.40;8.47;;;;;;;;;;5090364;28;20448;-55
2021/04/19 07:38:29;;;;;;;9.50;8.50;;;;;;;;;;5090789;28;20431;-55
2021/04/19 07:40:55;;;;;;;9.47;8.30;;;;;;;;;;5090553;28;20424;-54
2021/04/19 07:43:21;;;;;;;9.83;8.93;;;;;;;;;;5090930;28;20953;-55
2021/04/19 07:46:09;;;;;;;6.23;5.67;;;;;;;;;;5090416;28;20399;-54
2021/04/19 07:48:37;;;;;;;4.23;3.70;;;;;;;;;;5091006;28;20951;-55
2021/04/19 07:51:23;;;;;;;4.33;3.93;;;;;;;;;;5090453;28;20391;-55
2021/04/19 07:53:50;;;;;;;4.70;4.30;;;;;;;;;;5090901;28;20390;-54
2021/04/19 07:56:16;;;;;;;3.90;3.60;;;;;;;;;;5090158;28;20479;-55
2021/04/19 07:58:42;;;;;;;4.57;4.17;;;;;;;;;;5089130;28;20447;-55
2021/04/19 08:01:08;;;;;;;4.10;3.70;;;;;;;;;;5090116;28;20398;-55
2021/04/19 08:03:41;;;;;;;4.40;4.00;;;;;;;;;;5090348;28;20398;-54
2021/04/19 08:06:25;;;;;;;4.50;4.13;;;;;;;;;;5089927;28;20396;-55
2021/04/19 08:08:51;;;;;;;3.87;3.60;;;;;;;;;;5090300;28;20418;-56
2021/04/19 08:11:18;;;;;;;3.20;3.00;;;;;;;;;;5090049;28;20410;-55
2021/04/19 08:13:44;;;;;;;3.33;3.10;;;;;;;;;;5090276;28;20403;-55
2021/04/19 08:16:13;;;;;;;3.67;3.33;;;;;;;;;;5089820;28;20425;-55
2021/04/19 08:18:39;;;;;;;2.80;2.60;;;;;;;;;;5089954;28;20862;-55
2021/04/19 08:21:05;;;;;;;2.93;2.73;;;;;;;;;;5090750;28;20685;-56
2021/04/19 08:23:37;;;;;;;3.07;2.87;;;;;;;;;;5072210;28;20415;-55
2021/04/19 08:26:03;;;;;;;4.57;3.80;;;;;;;;;;5089990;28;20853;-55
2021/04/19 08:28:29;;;;;;;4.40;3.23;;;;;;;;;;5089886;28;20374;-55
2021/04/19 08:30:58;;;;;;;2.87;2.63;;;;;;;;;;5089970;28;20375;-55
2021/04/19 08:33:24;;;;;;;2.77;2.40;;;;;;;;;;5092687;28;20411;-56
2021/04/19 08:35:52;;;;;;;2.60;2.40;;;;;;;;;;5093678;28;20469;-56
2021/04/19 08:38:18;;;;;;;2.27;2.07;;;;;;;;;;5093891;28;20396;-56
2021/04/19 08:40:45;;;;;;;4.30;3.83;;;;;;;;;;5093543;28;20502;-55
2021/04/19 08:43:13;;;;;;;4.83;4.33;;;;;;;;;;5093652;28;20431;-55
2021/04/19 08:45:40;;;;;;;5.17;3.20;;;;;;;;;;5093197;28;20423;-55
2021/04/19 08:48:10;;;;;;;2.80;2.60;;;;;;;;;;5093948;28;20403;-56
2021/04/19 08:50:36;;;;;;;2.57;2.10;;;;;;;;;;5093393;28;20426;-56
2021/04/19 08:53:02;;;;;;;2.60;2.50;;;;;;;;;;5093584;28;20407;-56
2021/04/19 08:55:29;;;;;;;4.03;2.43;;;;;;;;;;5093140;28;21004;-55
2021/04/19 08:58:03;;;;;;;2.80;2.60;;;;;;;;;;5093270;28;20459;-55
2021/04/19 09:00:29;;;;;;;3.50;3.17;;;;;;;;;;5093239;28;20451;-55
2021/04/19 09:02:59;;;;;;;3.80;3.50;;;;;;;;;;5093484;28;20479;-56
2021/04/19 09:05:25;;;;;;;3.23;2.93;;;;;;;;;;5093155;28;20426;-56
2021/04/19 09:08:00;;;;;;;2.93;2.70;;;;;;;;;;5093535;28;20810;-55
2021/04/19 09:10:26;;;;;;;4.40;4.00;;;;;;;;;;5093105;28;20419;-55
2021/04/19 09:12:52;;;;;;;2.67;2.57;;;;;;;;;;5093197;28;20964;-55
2021/04/19 09:15:18;;;;;;;3.57;3.27;;;;;;;;;;5092836;28;20885;-55
2021/04/19 09:17:58;;;;;;;3.50;3.30;;;;;;;;;;5092676;28;20451;-55
2021/04/19 09:20:28;;;;;;;3.80;3.50;;;;;;;;;;5107547;28;20459;-55
2021/04/19 09:23:14;;;;;;;4.10;3.57;;;;;;;;;;5093103;28;20371;-55
2021/04/19 09:25:43;;;;;;;4.10;3.80;;;;;;;;;;5092771;28;20743;-55
2021/04/19 09:28:09;;;;;;;4.57;4.13;;;;;;;;;;5093185;28;20473;-55
2021/04/19 09:30:37;;;;;;;3.73;3.43;;;;;;;;;;5092516;28;20470;-55
2021/04/19 09:33:06;;;;;;;3.60;3.30;;;;;;;;;;5092330;28;20775;-55
2021/04/19 09:38:07;;;;;;;4.20;3.63;;;;;;;;;;5092824;28;20427;-55
2021/04/19 09:40:46;;;;;;;3.63;3.33;;;;;;;;;;5092356;28;20980;-55
2021/04/19 09:43:12;;;;;;;4.83;3.57;;;;;;;;;;5092555;28;20378;-55
2021/04/19 09:45:54;;;;;;;3.47;3.17;;;;;;;;;;5092167;28;20378;-56
2021/04/19 09:48:27;;;;;;;5.27;3.40;;;;;;;;;;5092557;28;20644;-55
2021/04/19 09:50:53;;;;;;;4.03;3.70;;;;;;;;;;5092412;28;20435;-56
2021/04/19 09:53:20;;;;;;;3.07;2.87;;;;;;;;;;5092489;28;20446;-55
2021/04/19 09:55:46;;;;;;;3.03;2.83;;;;;;;;;;5091928;28;20478;-55
2021/04/19 09:58:12;;;;;;;3.63;3.33;;;;;;;;;;5092162;28;20709;-56
2021/04/19 10:00:38;;;;;;;3.70;3.40;;;;;;;;;;5092132;28;20415;-55
2021/04/19 10:03:04;;;;;;;3.37;3.17;;;;;;;;;;5092174;28;20414;-55
2021/04/19 10:05:30;;;;;;;3.77;3.40;;;;;;;;;;5092142;28;20392;-55
2021/04/19 10:07:58;;;;;;;4.10;3.80;;;;;;;;;;5091500;28;20840;-55
2021/04/19 10:10:24;;;;;;;3.80;3.37;;;;;;;;;;5091682;28;20443;-56
2021/04/19 10:12:50;;;;;;;3.83;3.53;;;;;;;;;;5091816;28;20399;-55
2021/04/19 10:15:20;;;;;;;3.90;3.33;;;;;;;;;;5091750;28;20969;-54
2021/04/19 10:17:46;;;;;;;3.47;3.27;;;;;;;;;;5090590;28;20457;-55
2021/04/19 10:20:26;;;;;;;3.30;3.10;;;;;;;;;;5091776;28;20411;-55
2021/04/19 10:23:11;;;;;;;4.80;4.40;;;;;;;;;;5091815;28;20384;-55
2021/04/19 10:25:53;;;;;;;5.73;4.00;;;;;;;;;;5091359;28;20370;-55
2021/04/19 10:28:26;;;;;;;4.40;4.10;;;;;;;;;;5091580;28;20883;-55
2021/04/19 10:30:52;;;;;;;4.27;3.97;;;;;;;;;;5091638;28;20419;-55
2021/04/19 10:33:27;;;;;;;4.60;4.20;;;;;;;;;;5091492;28;20377;-55
2021/04/19 10:35:52;;;;;;;5.30;4.20;;;;;;;;;;5091320;28;20415;-55
2021/04/19 10:38:26;;;;;;;5.33;4.90;;;;;;;;;;5091551;28;20479;-55
2021/04/19 10:40:59;;;;;;;5.30;4.80;;;;;;;;;;5091497;28;20421;-55
2021/04/19 10:43:26;;;;;;;7.93;7.20;;;;;;;;;;5091921;28;20494;-55
2021/04/19 10:45:51;;;;;;;8.60;7.77;;;;;;;;;;5091132;28;20374;-55
2021/04/19 10:48:21;;;;;;;11.30;9.07;;;;;;;;;;5091402;28;20400;-55
2021/04/19 10:50:51;;;;;;;9.90;8.20;;;;;;;;;;5091478;28;20407;-54
2021/04/19 10:53:36;;;;;;;8.60;7.77;;;;;;;;;;5091583;28;20898;-54
2021/04/19 10:56:02;;;;;;;8.40;7.60;;;;;;;;;;5090408;28;21020;-55
2021/04/19 10:58:31;;;;;;;10.20;8.07;;;;;;;;;;5091192;28;20422;-55
2021/04/19 11:00:58;;;;;;;9.50;8.60;;;;;;;;;;5091064;28;20471;-55
2021/04/19 11:03:32;;;;;;;10.10;8.63;;;;;;;;;;5091220;28;20876;-55
2021/04/19 11:06:00;;;;;;;10.23;8.50;;;;;;;;;;5090879;28;20431;-55
2021/04/19 11:09:02;;;;;;;9.13;7.80;;;;;;;;;;5091130;28;20461;-55
2021/04/19 11:11:28;;;;;;;9.23;8.33;;;;;;;;;;5048182;28;20483;-55
2021/04/19 11:14:06;;;;;;;10.80;8.67;;;;;;;;;;5082584;28;20397;-55
2021/04/19 11:16:32;;;;;;;13.17;9.33;;;;;;;;;;5090465;28;20954;-55
2021/04/19 11:18:58;;;;;;;10.77;8.97;;;;;;;;;;5090876;28;20432;-55
2021/04/19 11:21:31;;;;;;;9.17;8.27;;;;;;;;;;5090830;28;20476;-55
2021/04/19 11:24:06;;;;;;;9.70;7.70;;;;;;;;;;5091727;28;20412;-53
2021/04/19 11:26:32;;;;;;;8.40;7.50;;;;;;;;;;5090686;28;20460;-52
2021/04/19 11:28:59;;;;;;;11.07;7.57;;;;;;;;;;5090744;28;20434;-52
2021/04/19 11:31:25;;;;;;;8.07;7.27;;;;;;;;;;5090833;28;20464;-55
2021/04/19 11:34:10;;;;;;;8.93;8.10;;;;;;;;;;5090539;28;20427;-53
2021/04/19 11:36:40;;;;;;;8.83;7.67;;;;;;;;;;5088625;28;20458;-54
2021/04/19 11:39:17;;;;;;;8.67;7.87;;;;;;;;;;5089430;28;20420;-52
2021/04/19 11:41:44;;;;;;;8.27;7.47;;;;;;;;;;5089607;28;20493;-55
2021/04/19 11:44:10;;;;;;;9.03;8.10;;;;;;;;;;5090454;28;20385;-52
2021/04/19 11:46:54;;;;;;;10.33;7.70;;;;;;;;;;5090084;28;20404;-52
2021/04/19 11:49:23;;;;;;;8.67;7.67;;;;;;;;;;5090500;28;20471;-53
2021/04/19 11:51:48;;;;;;;8.90;8.10;;;;;;;;;;5090672;28;20399;-55
2021/04/19 11:54:16;;;;;;;9.20;6.93;;;;;;;;;;5090480;28;20385;-52
2021/04/19 11:56:42;;;;;;;8.90;8.00;;;;;;;;;;5090248;28;20508;-53
2021/04/19 11:59:08;;;;;;;8.17;6.87;;;;;;;;;;5090185;28;20443;-53
2021/04/19 12:01:35;;;;;;;9.17;8.20;;;;;;;;;;5090426;28;20873;-53
2021/04/19 12:04:05;;;;;;;8.07;7.33;;;;;;;;;;5090609;28;20403;-52
2021/04/19 12:06:31;;;;;;;7.93;6.67;;;;;;;;;;5090188;28;20411;-55
2021/04/19 12:08:57;;;;;;;7.57;6.87;;;;;;;;;;5094072;28;20401;-52
2021/04/19 12:11:23;;;;;;;7.60;6.90;;;;;;;;;;5094518;28;20789;-53
2021/04/19 12:13:50;;;;;;;6.80;6.13;;;;;;;;;;5099328;28;20426;-54
2021/04/19 12:16:16;;;;;;;6.90;6.30;;;;;;;;;;5107835;28;20830;-54
2021/04/19 12:18:42;;;;;;;7.13;6.50;;;;;;;;;;5104736;28;20414;-54
2021/04/19 12:21:08;;;;;;;7.23;6.57;;;;;;;;;;5100086;28;20933;-54
2021/04/19 12:23:34;;;;;;;7.97;7.00;;;;;;;;;;5085872;28;20484;-55
2021/04/19 12:26:00;;;;;;;6.67;6.00;;;;;;;;;;5082014;28;20484;-55
2021/04/19 12:28:26;;;;;;;7.97;7.17;;;;;;;;;;5078925;28;20413;-56
2021/04/19 12:30:53;;;;;;;9.47;6.87;;;;;;;;;;5078762;28;20432;-56
2021/04/19 12:33:19;;;;;;;6.93;6.13;;;;;;;;;;5088258;28;20462;-53
2021/04/19 12:35:46;;;;;;;10.60;6.23;;;;;;;;;;5074039;28;20412;-53
2021/04/19 12:38:12;;;;;;;7.70;6.90;;;;;;;;;;5091709;28;20474;-57
2021/04/19 12:40:38;;;;;;;8.93;8.03;;;;;;;;;;5093010;28;20432;-55
2021/04/19 12:43:04;;;;;;;12.37;8.80;;;;;;;;;;5093716;28;20757;-56
2021/04/19 12:45:34;;;;;;;8.77;7.90;;;;;;;;;;5093632;28;20406;-56
2021/04/19 12:48:01;;;;;;;8.37;7.57;;;;;;;;;;5093684;28;20395;-55
2021/04/19 12:50:27;;;;;;;13.20;8.07;;;;;;;;;;5093806;28;20843;-55
2021/04/19 12:52:53;;;;;;;11.20;7.83;;;;;;;;;;5093511;28;20370;-55
2021/04/19 12:55:19;;;;;;;10.13;7.73;;;;;;;;;;5093367;28;20410;-55
2021/04/19 12:57:45;;;;;;;11.13;8.87;;;;;;;;;;5093499;28;20455;-55
2021/04/19 13:00:11;;;;;;;9.73;8.83;;;;;;;;;;5093549;28;20477;-54
2021/04/19 13:02:37;;;;;;;9.37;8.37;;;;;;;;;;5093274;28;20868;-55
2021/04/19 13:05:03;;;;;;;9.03;8.13;;;;;;;;;;5092385;28;20382;-56
2021/04/19 13:07:29;;;;;;;12.50;9.53;;;;;;;;;;5100335;28;20406;-55
2021/04/19 13:09:55;;;;;;;10.90;9.80;;;;;;;;;;5093803;28;21004;-56
2021/04/19 13:12:22;;;;;;;10.67;9.17;;;;;;;;;;5093589;28;20378;-54
2021/04/19 13:14:48;;;;;;;9.57;8.57;;;;;;;;;;5093101;28;20490;-55
2021/04/19 13:17:14;;;;;;;12.23;9.60;;;;;;;;;;5089503;28;20546;-53
2021/04/19 13:19:40;;;;;;;12.47;10.20;;;;;;;;;;5089212;28;20394;-54
2021/04/19 13:22:06;;;;;;;9.77;8.73;;;;;;;;;;5073685;28;20419;-55
2021/04/19 13:24:32;;;;;;;10.23;8.33;;;;;;;;;;5083137;28;20417;-52
2021/04/19 13:26:58;;;;;;;10.77;7.40;;;;;;;;;;5107228;28;20423;-52
2021/04/19 13:29:25;;;;;;;9.07;8.07;;;;;;;;;;5104222;28;20514;-52
2021/04/19 13:31:51;;;;;;;9.40;8.50;;;;;;;;;;5092518;28;20481;-53
2021/04/19 13:34:18;;;;;;;8.47;7.57;;;;;;;;;;5076079;28;20468;-54
2021/04/19 13:36:44;;;;;;;9.10;7.40;;;;;;;;;;5083191;28;20452;-52
2021/04/19 13:39:10;;;;;;;9.60;7.97;;;;;;;;;;5074197;28;20446;-55
2021/04/19 13:41:36;;;;;;;10.40;8.10;;;;;;;;;;5091153;28;20411;-55
2021/04/19 13:44:02;;;;;;;8.50;7.57;;;;;;;;;;5080661;28;20410;-55
2021/04/19 13:46:28;;;;;;;8.83;7.93;;;;;;;;;;5092370;28;20410;-55
2021/04/19 13:48:55;;;;;;;8.90;8.00;;;;;;;;;;5091838;28;20442;-55
2021/04/19 13:51:21;;;;;;;8.97;8.00;;;;;;;;;;5101321;28;20419;-55
2021/04/19 13:53:48;;;;;;;9.80;7.80;;;;;;;;;;5092513;28;20942;-56
2021/04/19 13:56:14;;;;;;;14.20;7.80;;;;;;;;;;5085144;28;20844;-56
2021/04/19 13:58:41;;;;;;;11.47;9.07;;;;;;;;;;5086416;28;20431;-55
2021/04/19 14:01:07;;;;;;;12.37;8.20;;;;;;;;;;5090067;28;20418;-54
2021/04/19 14:03:33;;;;;;;9.77;8.80;;;;;;;;;;5091483;28;20849;-56
2021/04/19 14:05:59;;;;;;;10.07;8.80;;;;;;;;;;5090939;28;20415;-56
2021/04/19 14:08:25;;;;;;;8.50;7.70;;;;;;;;;;5092143;28;20392;-55
2021/04/19 14:10:51;;;;;;;8.43;7.20;;;;;;;;;;5092406;28;20727;-55
2021/04/19 14:13:17;;;;;;;9.60;6.80;;;;;;;;;;5090718;28;20438;-54
2021/04/19 14:15:43;;;;;;;8.13;7.27;;;;;;;;;;5091833;28;20858;-54
2021/04/19 14:18:09;;;;;;;8.43;7.63;;;;;;;;;;5091877;28;20451;-55
2021/04/19 14:20:35;;;;;;;9.90;7.43;;;;;;;;;;5091795;28;20479;-55
2021/04/19 14:23:02;;;;;;;8.13;7.17;;;;;;;;;;5091663;28;20429;-54
2021/04/19 14:25:28;;;;;;;8.00;7.10;;;;;;;;;;5091716;28;20411;-55
2021/04/19 14:27:54;;;;;;;8.23;7.37;;;;;;;;;;5092279;28;20378;-55
2021/04/19 14:30:20;;;;;;;8.50;7.67;;;;;;;;;;5091083;28;20481;-56
2021/04/19 14:32:46;;;;;;;8.20;7.43;;;;;;;;;;5091733;28;20878;-55
2021/04/19 14:35:13;;;;;;;9.93;8.33;;;;;;;;;;5073036;28;20389;-55